Time;durP1;ratioP1;P1;durP2;ratioP2;P2;SDS_P1;SDS_P2;PMS_P1;PMS_P2;Temp;Humidity;BMP_temperature;BMP_pressure;BME280_temperature;BME280_humidity;BME280_pressure;Samples;Min_cycle;Max_cycle;Signal;HPM_P1;HPM_P2
2022/10/19 00:01:35;;;;;;;13.48;7.10;;;;;;;;;;5001574;28;20022;-90
2022/10/19 00:04:01;;;;;;;10.77;6.63;;;;;;;;;;5002469;28;20061;-89
2022/10/19 00:06:29;;;;;;;17.27;6.45;;;;;;;;;;5027619;28;20094;-90
2022/10/19 00:09:11;;;;;;;14.50;6.05;;;;;;;;;;5021568;28;20040;-90
2022/10/19 00:11:39;;;;;;;13.07;6.03;;;;;;;;;;4994253;28;20420;-89
2022/10/19 00:14:05;;;;;;;10.57;6.30;;;;;;;;;;4992345;28;20388;-90
2022/10/19 00:16:34;;;;;;;9.25;6.07;;;;;;;;;;4989144;28;20361;-90
2022/10/19 00:19:06;;;;;;;12.80;5.88;;;;;;;;;;4992239;28;20503;-91
2022/10/19 00:21:32;;;;;;;11.40;6.25;;;;;;;;;;4994756;28;20030;-91
2022/10/19 00:23:57;;;;;;;11.10;6.22;;;;;;;;;;5012889;28;20110;-91
2022/10/19 00:26:23;;;;;;;10.98;5.85;;;;;;;;;;4994537;28;20026;-91
2022/10/19 00:28:48;;;;;;;15.88;7.47;;;;;;;;;;4994071;28;20026;-91
2022/10/19 00:31:17;;;;;;;15.35;8.00;;;;;;;;;;4992365;28;20033;-90
2022/10/19 00:33:45;;;;;;;13.10;7.88;;;;;;;;;;4979204;28;20022;-91
2022/10/19 00:36:20;;;;;;;12.68;8.45;;;;;;;;;;4992277;28;20018;-90
2022/10/19 00:38:46;;;;;;;17.10;8.43;;;;;;;;;;5012330;28;20033;-90
2022/10/19 00:41:12;;;;;;;17.55;7.82;;;;;;;;;;5011461;28;20121;-89
2022/10/19 00:43:57;;;;;;;19.13;7.30;;;;;;;;;;5000723;28;20081;-89
2022/10/19 00:46:23;;;;;;;14.35;7.95;;;;;;;;;;4980971;28;20030;-89
2022/10/19 00:48:51;;;;;;;16.67;7.95;;;;;;;;;;4978172;28;20345;-88
2022/10/19 00:51:17;;;;;;;11.25;6.68;;;;;;;;;;4980602;28;20023;-89
2022/10/19 00:53:43;;;;;;;10.38;6.95;;;;;;;;;;5006852;28;20022;-88
2022/10/19 00:56:12;;;;;;;12.38;6.55;;;;;;;;;;5012066;28;20468;-89
2022/10/19 00:58:40;;;;;;;16.60;6.95;;;;;;;;;;4997037;28;20440;-89
2022/10/19 01:01:08;;;;;;;24.05;7.05;;;;;;;;;;4996780;28;20187;-90
2022/10/19 01:03:33;;;;;;;10.77;6.55;;;;;;;;;;5003608;28;20522;-89
2022/10/19 01:06:00;;;;;;;12.93;7.50;;;;;;;;;;4995995;28;20030;-89
2022/10/19 01:08:26;;;;;;;14.77;7.85;;;;;;;;;;4999263;28;20030;-89
2022/10/19 01:11:13;;;;;;;17.17;7.45;;;;;;;;;;5014075;28;20101;-89
2022/10/19 01:14:05;;;;;;;28.15;8.38;;;;;;;;;;4991513;28;20027;-89
2022/10/19 01:16:57;;;;;;;28.15;8.48;;;;;;;;;;4980350;28;20563;-89
2022/10/19 01:19:50;;;;;;;26.95;8.07;;;;;;;;;;4976023;28;20039;-89
2022/10/19 01:22:24;;;;;;;35.67;8.43;;;;;;;;;;4976473;28;20039;-89
2022/10/19 01:25:20;;;;;;;27.25;8.07;;;;;;;;;;4985587;28;20030;-89
2022/10/19 01:28:23;;;;;;;30.80;8.15;;;;;;;;;;5013235;28;20487;-89
2022/10/19 01:30:57;;;;;;;27.92;8.45;;;;;;;;;;5015990;28;20116;-90
2022/10/19 01:33:52;;;;;;;27.60;8.63;;;;;;;;;;5014661;28;20025;-89
2022/10/19 01:36:23;;;;;;;22.92;8.63;;;;;;;;;;4989549;28;20432;-89
2022/10/19 01:39:04;;;;;;;69.38;9.43;;;;;;;;;;4995071;28;20027;-89
2022/10/19 01:41:44;;;;;;;24.67;9.48;;;;;;;;;;4994380;28;20042;-89
2022/10/19 01:44:28;;;;;;;51.50;9.77;;;;;;;;;;4993518;28;20395;-89
2022/10/19 01:47:03;;;;;;;26.02;9.48;;;;;;;;;;5016093;28;20044;-89
2022/10/19 01:49:39;;;;;;;42.80;9.60;;;;;;;;;;4997369;28;20026;-89
2022/10/19 01:52:08;;;;;;;39.15;9.52;;;;;;;;;;4990267;28;20028;-89
2022/10/19 01:54:41;;;;;;;32.25;9.90;;;;;;;;;;5010722;28;20025;-89
2022/10/19 01:57:10;;;;;;;36.13;9.05;;;;;;;;;;5001423;28;20073;-89
2022/10/19 01:59:36;;;;;;;29.17;8.40;;;;;;;;;;4991676;28;20630;-89
2022/10/19 02:02:03;;;;;;;54.00;9.45;;;;;;;;;;5001955;28;20034;-89
2022/10/19 02:04:30;;;;;;;47.10;10.38;;;;;;;;;;5024829;28;20476;-90
2022/10/19 02:06:56;;;;;;;63.80;10.98;;;;;;;;;;4997133;28;20117;-89
2022/10/19 02:09:22;;;;;;;51.08;10.52;;;;;;;;;;4995060;28;20030;-89
2022/10/19 02:11:55;;;;;;;44.75;9.38;;;;;;;;;;5010797;28;20026;-89
2022/10/19 02:14:25;;;;;;;34.90;9.93;;;;;;;;;;4981813;28;20027;-89
2022/10/19 02:16:58;;;;;;;40.60;9.25;;;;;;;;;;4993347;28;20027;-88
2022/10/19 02:19:24;;;;;;;47.78;9.77;;;;;;;;;;4995100;28;20380;-89
2022/10/19 02:21:50;;;;;;;43.50;10.57;;;;;;;;;;4993182;28;20369;-89
2022/10/19 02:24:16;;;;;;;43.40;10.35;;;;;;;;;;4993781;28;20556;-89
2022/10/19 02:26:41;;;;;;;22.85;9.50;;;;;;;;;;5003309;28;20099;-89
2022/10/19 02:29:08;;;;;;;26.50;9.48;;;;;;;;;;5013510;28;20112;-89
2022/10/19 02:31:34;;;;;;;18.20;8.73;;;;;;;;;;5012807;28;20018;-89
2022/10/19 02:34:00;;;;;;;29.38;8.77;;;;;;;;;;4994968;28;20092;-89
2022/10/19 02:36:25;;;;;;;34.03;9.35;;;;;;;;;;4997364;28;20018;-89
2022/10/19 02:38:51;;;;;;;28.02;10.07;;;;;;;;;;5001399;28;20543;-89
2022/10/19 02:41:30;;;;;;;29.52;9.23;;;;;;;;;;4992995;28;20036;-89
2022/10/19 02:44:04;;;;;;;44.55;10.05;;;;;;;;;;4989021;28;20085;-89
2022/10/19 02:46:43;;;;;;;30.35;9.48;;;;;;;;;;5010057;28;20029;-89
2022/10/19 02:49:10;;;;;;;39.03;9.18;;;;;;;;;;4999970;28;20034;-90
2022/10/19 02:51:38;;;;;;;51.25;9.60;;;;;;;;;;4994022;28;20030;-89
2022/10/19 02:54:06;;;;;;;31.17;9.75;;;;;;;;;;4994292;28;20021;-89
2022/10/19 02:56:33;;;;;;;27.55;10.65;;;;;;;;;;5012768;28;20046;-89
2022/10/19 02:58:59;;;;;;;41.58;10.00;;;;;;;;;;5010692;28;20032;-89
2022/10/19 03:01:24;;;;;;;53.35;10.23;;;;;;;;;;5011245;28;20030;-89
2022/10/19 03:03:49;;;;;;;32.17;10.38;;;;;;;;;;4992598;28;20085;-89
2022/10/19 03:06:15;;;;;;;49.83;10.20;;;;;;;;;;5011040;28;20060;-89
2022/10/19 03:08:40;;;;;;;49.72;10.02;;;;;;;;;;5005149;28;20018;-90
2022/10/19 03:11:06;;;;;;;39.72;11.82;;;;;;;;;;4993251;28;20114;-90
2022/10/19 03:13:31;;;;;;;25.30;11.02;;;;;;;;;;4994468;28;20383;-89
2022/10/19 03:15:57;;;;;;;27.17;10.18;;;;;;;;;;4987047;28;20428;-90
2022/10/19 03:18:22;;;;;;;27.67;10.77;;;;;;;;;;4995107;28;20025;-90
2022/10/19 03:20:47;;;;;;;25.65;10.85;;;;;;;;;;4994530;28;20028;-90
2022/10/19 03:23:13;;;;;;;39.03;11.63;;;;;;;;;;4996349;28;20096;-89
2022/10/19 03:25:38;;;;;;;32.22;10.45;;;;;;;;;;5012883;28;20108;-89
2022/10/19 03:28:03;;;;;;;28.80;10.73;;;;;;;;;;4994971;28;20026;-89
2022/10/19 03:30:29;;;;;;;29.23;11.40;;;;;;;;;;4993315;28;20034;-89
2022/10/19 03:32:54;;;;;;;29.75;10.82;;;;;;;;;;4994621;28;20092;-90
2022/10/19 03:35:19;;;;;;;34.40;12.70;;;;;;;;;;4992334;28;20034;-89
2022/10/19 03:37:45;;;;;;;41.78;13.40;;;;;;;;;;5002425;28;20040;-90
2022/10/19 03:40:10;;;;;;;44.33;13.15;;;;;;;;;;4998865;28;20033;-89
2022/10/19 03:42:36;;;;;;;35.92;12.27;;;;;;;;;;4989897;28;20457;-89
2022/10/19 03:45:01;;;;;;;33.35;12.63;;;;;;;;;;4986217;28;20026;-89
2022/10/19 03:47:27;;;;;;;44.60;13.77;;;;;;;;;;4991831;28;20026;-89
2022/10/19 03:49:52;;;;;;;59.08;14.65;;;;;;;;;;4999858;28;20030;-89
2022/10/19 03:52:18;;;;;;;48.63;14.25;;;;;;;;;;4998128;28;20022;-90
2022/10/19 03:54:44;;;;;;;34.70;12.63;;;;;;;;;;5013398;28;20024;-90
2022/10/19 03:57:09;;;;;;;33.03;12.05;;;;;;;;;;5012338;28;20030;-90
2022/10/19 03:59:35;;;;;;;52.17;12.77;;;;;;;;;;5012719;28;20034;-90
2022/10/19 04:02:00;;;;;;;35.88;12.40;;;;;;;;;;5012657;28;20033;-90
2022/10/19 04:04:25;;;;;;;36.53;12.38;;;;;;;;;;5006141;28;20037;-89
2022/10/19 04:06:52;;;;;;;41.13;12.10;;;;;;;;;;4992844;28;20030;-89
2022/10/19 04:09:19;;;;;;;37.28;11.32;;;;;;;;;;4993620;28;20383;-89
2022/10/19 04:11:45;;;;;;;36.00;10.95;;;;;;;;;;5006562;28;20486;-90
2022/10/19 04:14:16;;;;;;;43.00;13.43;;;;;;;;;;4994807;28;20065;-90
2022/10/19 04:16:42;;;;;;;36.22;11.63;;;;;;;;;;5011075;28;20502;-90
2022/10/19 04:19:09;;;;;;;46.67;12.02;;;;;;;;;;5001506;28;20022;-89
2022/10/19 04:21:38;;;;;;;36.78;12.23;;;;;;;;;;5003671;28;20030;-89
2022/10/19 04:24:12;;;;;;;31.30;11.38;;;;;;;;;;4999431;28;20025;-89
2022/10/19 04:26:42;;;;;;;32.70;11.50;;;;;;;;;;5003798;28;20033;-89
2022/10/19 04:29:09;;;;;;;55.85;12.75;;;;;;;;;;4997853;28;20054;-89
2022/10/19 04:31:35;;;;;;;66.82;12.40;;;;;;;;;;5003224;28;20483;-89
2022/10/19 04:34:00;;;;;;;90.97;12.35;;;;;;;;;;5002366;28;20036;-89
2022/10/19 04:36:26;;;;;;;55.58;13.43;;;;;;;;;;5003313;28;20054;-88
2022/10/19 04:38:51;;;;;;;51.58;13.05;;;;;;;;;;4998315;28;20057;-89
2022/10/19 04:41:18;;;;;;;72.28;11.82;;;;;;;;;;5017501;28;20122;-89
2022/10/19 04:43:44;;;;;;;42.28;11.98;;;;;;;;;;5020408;28;20038;-89
2022/10/19 04:49:26;;;;;;;76.47;11.43;;;;;;;;;;5012619;28;20052;-90
2022/10/19 04:51:51;;;;;;;55.72;12.60;;;;;;;;;;5026417;28;20054;-88
2022/10/19 04:54:17;;;;;;;83.57;12.32;;;;;;;;;;5004296;28;20049;-88
2022/10/19 04:56:52;;;;;;;94.80;11.27;;;;;;;;;;4996848;28;20027;-88
2022/10/19 04:59:18;;;;;;;83.18;11.10;;;;;;;;;;4998688;28;20029;-88
2022/10/19 05:01:55;;;;;;;54.75;10.93;;;;;;;;;;4994624;28;20018;-88
2022/10/19 05:04:21;;;;;;;101.20;10.30;;;;;;;;;;4996025;28;20448;-90
2022/10/19 05:06:46;;;;;;;89.90;10.43;;;;;;;;;;5006130;28;20041;-87
2022/10/19 05:09:11;;;;;;;82.25;9.77;;;;;;;;;;5002694;28;20444;-91
2022/10/19 05:11:37;;;;;;;80.97;9.82;;;;;;;;;;5008228;28;20014;-92
2022/10/19 05:14:02;;;;;;;71.00;10.82;;;;;;;;;;5010835;28;20079;-92
2022/10/19 05:16:28;;;;;;;29.52;9.25;;;;;;;;;;5009686;28;20148;-93
2022/10/19 05:18:55;;;;;;;52.85;10.60;;;;;;;;;;4997371;28;20102;-89
2022/10/19 05:21:26;;;;;;;34.38;10.02;;;;;;;;;;4997729;28;20034;-92
2022/10/19 05:23:53;;;;;;;28.67;10.03;;;;;;;;;;4977693;28;20030;-90
2022/10/19 05:26:21;;;;;;;18.20;9.05;;;;;;;;;;4987398;28;20026;-91
2022/10/19 05:28:55;;;;;;;23.17;9.50;;;;;;;;;;4982575;28;20023;-91
2022/10/19 05:31:20;;;;;;;28.75;11.25;;;;;;;;;;4985080;28;20022;-90
2022/10/19 05:33:46;;;;;;;21.52;9.73;;;;;;;;;;4990671;28;20074;-91
2022/10/19 05:36:24;;;;;;;35.15;9.70;;;;;;;;;;5015406;28;20018;-91
2022/10/19 05:38:51;;;;;;;31.13;11.05;;;;;;;;;;4986727;28;20472;-90
2022/10/19 05:41:18;;;;;;;27.73;10.50;;;;;;;;;;4994345;28;20026;-91
2022/10/19 05:43:44;;;;;;;28.30;9.35;;;;;;;;;;4995179;28;20022;-88
2022/10/19 05:46:12;;;;;;;23.08;10.43;;;;;;;;;;4992864;28;20053;-88
2022/10/19 05:48:39;;;;;;;18.25;8.32;;;;;;;;;;4998494;28;20477;-88
2022/10/19 05:51:06;;;;;;;14.38;8.63;;;;;;;;;;4994032;28;20037;-89
2022/10/19 05:53:32;;;;;;;18.02;8.23;;;;;;;;;;5011860;28;20044;-90
2022/10/19 05:55:57;;;;;;;13.32;8.02;;;;;;;;;;4999434;28;20033;-89
2022/10/19 05:58:23;;;;;;;11.70;7.47;;;;;;;;;;5012139;28;20018;-90
2022/10/19 06:00:56;;;;;;;13.68;8.02;;;;;;;;;;4987175;28;20029;-88
2022/10/19 06:03:23;;;;;;;18.48;7.38;;;;;;;;;;5005769;28;20369;-89
2022/10/19 06:05:49;;;;;;;12.98;7.18;;;;;;;;;;4997246;28;20026;-89
2022/10/19 06:08:16;;;;;;;10.27;6.68;;;;;;;;;;4990530;28;20027;-90
2022/10/19 06:10:42;;;;;;;12.30;7.05;;;;;;;;;;4993941;28;20081;-88
2022/10/19 06:13:07;;;;;;;11.85;6.95;;;;;;;;;;5000264;28;20026;-88
2022/10/19 06:15:35;;;;;;;11.85;7.07;;;;;;;;;;5003505;28;20022;-92
2022/10/19 06:18:03;;;;;;;12.65;7.90;;;;;;;;;;4997301;28;20033;-92
2022/10/19 06:20:28;;;;;;;16.52;8.57;;;;;;;;;;5007952;28;20097;-92
2022/10/19 06:22:54;;;;;;;17.80;8.10;;;;;;;;;;4996026;28;20439;-91
2022/10/19 06:25:19;;;;;;;13.02;8.63;;;;;;;;;;5011419;28;20022;-92
2022/10/19 06:27:45;;;;;;;13.27;8.00;;;;;;;;;;5008981;28;20381;-92
2022/10/19 06:30:11;;;;;;;14.93;8.80;;;;;;;;;;4989735;28;20029;-92
2022/10/19 06:32:36;;;;;;;12.65;7.80;;;;;;;;;;5002394;28;20054;-90
2022/10/19 06:35:02;;;;;;;13.38;7.25;;;;;;;;;;4996013;28;20026;-91
2022/10/19 06:37:27;;;;;;;10.68;7.25;;;;;;;;;;5000805;28;20026;-91
2022/10/19 06:39:53;;;;;;;8.63;6.72;;;;;;;;;;4990106;28;20539;-91
2022/10/19 06:42:18;;;;;;;11.70;6.68;;;;;;;;;;4979813;28;20056;-89
2022/10/19 06:44:43;;;;;;;12.75;7.68;;;;;;;;;;4984862;28;20060;-91
2022/10/19 06:47:09;;;;;;;9.85;6.57;;;;;;;;;;4989656;28;20022;-91
2022/10/19 06:49:34;;;;;;;11.30;6.65;;;;;;;;;;4989561;28;20137;-91
2022/10/19 06:52:01;;;;;;;16.55;7.00;;;;;;;;;;4998242;28;20041;-91
2022/10/19 06:54:26;;;;;;;12.30;6.60;;;;;;;;;;5010042;28;20491;-91
2022/10/19 06:56:52;;;;;;;10.55;6.03;;;;;;;;;;5015063;28;20026;-91
2022/10/19 06:59:17;;;;;;;14.02;6.60;;;;;;;;;;4993192;28;20038;-90
2022/10/19 07:01:42;;;;;;;10.45;6.55;;;;;;;;;;5005488;28;20026;-90
2022/10/19 07:04:08;;;;;;;9.70;5.85;;;;;;;;;;4995355;28;20122;-91
2022/10/19 07:06:33;;;;;;;11.50;6.75;;;;;;;;;;5010288;28;20018;-90
2022/10/19 07:08:59;;;;;;;9.05;6.15;;;;;;;;;;5000122;28;20037;-89
2022/10/19 07:11:24;;;;;;;11.52;6.65;;;;;;;;;;5008275;28;20028;-90
2022/10/19 07:13:51;;;;;;;10.55;6.55;;;;;;;;;;5003037;28;20040;-89
2022/10/19 07:16:17;;;;;;;10.77;6.80;;;;;;;;;;5016693;28;20030;-90
2022/10/19 07:18:43;;;;;;;11.48;6.85;;;;;;;;;;4998407;28;20494;-90
2022/10/19 07:21:11;;;;;;;15.25;7.35;;;;;;;;;;5005006;28;20015;-90
2022/10/19 07:23:39;;;;;;;11.38;7.20;;;;;;;;;;5021072;28;20041;-91
2022/10/19 07:26:11;;;;;;;10.88;6.32;;;;;;;;;;5037174;28;20044;-90
2022/10/19 07:28:37;;;;;;;11.93;6.53;;;;;;;;;;5037982;28;20025;-91
2022/10/19 07:31:05;;;;;;;8.25;5.95;;;;;;;;;;5037162;28;20089;-91
2022/10/19 07:33:30;;;;;;;11.63;5.95;;;;;;;;;;5037698;28;20030;-91
2022/10/19 07:36:01;;;;;;;6.93;4.70;;;;;;;;;;5037021;28;20016;-92
2022/10/19 07:38:28;;;;;;;8.77;4.82;;;;;;;;;;5035629;28;20010;-91
2022/10/19 07:41:12;;;;;;;8.50;5.38;;;;;;;;;;5036127;28;20041;-92
2022/10/19 07:43:38;;;;;;;11.82;5.40;;;;;;;;;;5037109;28;20030;-91
2022/10/19 07:46:07;;;;;;;6.72;5.63;;;;;;;;;;5037697;28;20053;-92
2022/10/19 07:48:34;;;;;;;7.97;5.60;;;;;;;;;;5036742;28;20026;-91
2022/10/19 07:51:01;;;;;;;10.05;5.70;;;;;;;;;;5036551;28;20030;-92
2022/10/19 07:53:27;;;;;;;8.50;5.65;;;;;;;;;;5035692;28;20030;-92
2022/10/19 07:55:52;;;;;;;10.65;5.90;;;;;;;;;;5031046;28;20026;-92
2022/10/19 07:58:18;;;;;;;9.63;5.65;;;;;;;;;;5024543;28;20034;-92
2022/10/19 08:00:46;;;;;;;7.68;5.65;;;;;;;;;;5021464;28;20032;-91
2022/10/19 08:03:12;;;;;;;9.25;5.72;;;;;;;;;;5026436;28;20029;-92
2022/10/19 08:05:37;;;;;;;12.20;6.60;;;;;;;;;;5027836;28;20030;-91
2022/10/19 08:08:06;;;;;;;13.80;6.18;;;;;;;;;;5030228;28;20044;-92
2022/10/19 08:10:32;;;;;;;10.77;6.22;;;;;;;;;;5029652;28;20025;-92
2022/10/19 08:12:57;;;;;;;9.68;6.78;;;;;;;;;;5028451;28;20026;-92
2022/10/19 08:15:25;;;;;;;13.57;7.65;;;;;;;;;;5028721;28;20033;-92
2022/10/19 08:17:50;;;;;;;12.13;7.20;;;;;;;;;;5024628;28;20030;-94
2022/10/19 08:20:16;;;;;;;11.07;7.43;;;;;;;;;;5024954;28;20029;-92
2022/10/19 08:22:44;;;;;;;12.00;7.35;;;;;;;;;;5028009;28;20006;-93
2022/10/19 08:25:09;;;;;;;11.77;7.68;;;;;;;;;;5033900;28;20022;-93
2022/10/19 08:27:34;;;;;;;13.10;6.78;;;;;;;;;;5025811;28;20026;-93
2022/10/19 08:30:00;;;;;;;10.63;7.25;;;;;;;;;;5032980;28;20040;-93
2022/10/19 08:32:25;;;;;;;9.52;6.38;;;;;;;;;;5022528;28;20026;-93
2022/10/19 08:34:51;;;;;;;10.90;6.78;;;;;;;;;;5023605;28;20121;-91
2022/10/19 08:37:17;;;;;;;8.85;5.97;;;;;;;;;;5023349;28;20030;-92
2022/10/19 08:39:42;;;;;;;12.05;6.82;;;;;;;;;;5035614;28;20030;-91
2022/10/19 08:42:17;;;;;;;10.95;6.25;;;;;;;;;;5023363;28;20116;-91
2022/10/19 08:45:12;;;;;;;14.00;6.03;;;;;;;;;;5020604;28;20036;-92
2022/10/19 08:48:15;;;;;;;10.32;6.88;;;;;;;;;;5023104;28;20030;-93
2022/10/19 08:50:46;;;;;;;9.00;5.82;;;;;;;;;;5013549;28;20038;-93
2022/10/19 08:53:34;;;;;;;10.43;7.10;;;;;;;;;;5020375;28;20510;-92
2022/10/19 08:56:12;;;;;;;10.98;6.30;;;;;;;;;;5014684;28;20487;-92
2022/10/19 08:59:09;;;;;;;9.40;6.38;;;;;;;;;;5029109;28;20029;-92
2022/10/19 09:02:08;;;;;;;10.85;5.72;;;;;;;;;;5027037;28;20395;-91
2022/10/19 09:04:48;;;;;;;8.50;5.93;;;;;;;;;;5028385;28;20026;-92
2022/10/19 09:07:22;;;;;;;9.13;6.25;;;;;;;;;;5028760;28;20025;-91
2022/10/19 09:10:21;;;;;;;13.00;6.70;;;;;;;;;;5026798;28;20033;-90
2022/10/19 09:13:05;;;;;;;9.65;6.13;;;;;;;;;;5026563;28;20026;-91
2022/10/19 09:15:43;;;;;;;8.82;6.15;;;;;;;;;;5031792;28;20056;-92
2022/10/19 09:18:36;;;;;;;13.32;6.78;;;;;;;;;;5025616;28;20025;-91
2022/10/19 09:21:20;;;;;;;9.18;6.25;;;;;;;;;;5028884;28;20026;-91
2022/10/19 09:24:14;;;;;;;8.48;5.85;;;;;;;;;;5028567;28;20037;-93
2022/10/19 09:27:13;;;;;;;7.68;4.80;;;;;;;;;;5027975;28;20052;-92
2022/10/19 09:33:01;;;;;;;6.85;4.40;;;;;;;;;;5040628;22;20111;-83
2022/10/19 09:35:29;;;;;;;6.75;3.72;;;;;;;;;;5017098;28;20108;-84
2022/10/19 09:37:55;;;;;;;6.53;3.60;;;;;;;;;;5019152;28;20029;-80
2022/10/19 09:40:25;;;;;;;5.97;3.83;;;;;;;;;;5022509;28;20369;-82
2022/10/19 09:42:58;;;;;;;12.05;4.13;;;;;;;;;;5018249;28;20017;-82
2022/10/19 09:45:51;;;;;;;5.90;3.80;;;;;;;;;;5037038;28;20036;-82
2022/10/19 09:48:48;;;;;;;5.95;3.55;;;;;;;;;;5030644;28;20052;-80
2022/10/19 09:51:15;;;;;;;8.30;3.33;;;;;;;;;;5009576;28;20076;-81
2022/10/19 09:53:54;;;;;;;4.97;3.58;;;;;;;;;;5015490;28;20017;-81
2022/10/19 09:56:26;;;;;;;5.70;3.67;;;;;;;;;;5016654;28;20032;-81
2022/10/19 09:58:56;;;;;;;3.60;2.78;;;;;;;;;;5016850;28;20550;-81
2022/10/19 10:01:39;;;;;;;5.32;3.08;;;;;;;;;;5016718;28;20026;-81
2022/10/19 10:04:16;;;;;;;3.63;2.53;;;;;;;;;;5020027;28;20029;-81
2022/10/19 10:06:43;;;;;;;9.35;2.72;;;;;;;;;;5036384;28;20052;-84
2022/10/19 10:09:22;;;;;;;3.85;2.20;;;;;;;;;;5036904;28;20065;-81
2022/10/19 10:11:49;;;;;;;3.33;2.22;;;;;;;;;;5035082;28;20022;-82
2022/10/19 10:14:33;;;;;;;2.78;1.85;;;;;;;;;;5025646;28;20026;-82
2022/10/19 10:17:06;;;;;;;6.18;2.63;;;;;;;;;;5015688;28;20034;-81
2022/10/19 10:19:34;;;;;;;2.40;2.10;;;;;;;;;;5017332;28;20381;-82
2022/10/19 10:22:02;;;;;;;2.85;1.83;;;;;;;;;;5015645;28;20092;-82
2022/10/19 10:24:29;;;;;;;5.07;2.20;;;;;;;;;;5016648;28;20062;-82
2022/10/19 10:27:00;;;;;;;3.83;1.98;;;;;;;;;;5016592;28;20029;-82
2022/10/19 10:29:33;;;;;;;5.05;2.30;;;;;;;;;;5016217;28;20025;-81
2022/10/19 10:32:03;;;;;;;3.00;2.30;;;;;;;;;;5013902;28;20029;-82
2022/10/19 10:34:42;;;;;;;3.92;2.50;;;;;;;;;;5015361;28;20026;-81
2022/10/19 10:37:17;;;;;;;2.70;2.20;;;;;;;;;;5029303;28;20030;-81
2022/10/19 10:39:43;;;;;;;5.03;2.10;;;;;;;;;;5015063;28;20022;-82
2022/10/19 10:42:15;;;;;;;3.40;1.95;;;;;;;;;;5017086;28;20060;-82
2022/10/19 10:44:48;;;;;;;2.20;2.00;;;;;;;;;;5019212;28;20033;-82
2022/10/19 10:47:18;;;;;;;2.38;2.05;;;;;;;;;;5011854;28;20033;-82
2022/10/19 10:49:53;;;;;;;9.20;2.10;;;;;;;;;;5019690;28;20030;-82
2022/10/19 10:52:18;;;;;;;2.58;2.13;;;;;;;;;;5016583;28;20018;-82
2022/10/19 10:55:09;;;;;;;2.75;2.10;;;;;;;;;;5016033;28;20502;-81
2022/10/19 10:57:38;;;;;;;4.50;2.25;;;;;;;;;;5017857;28;20025;-84
2022/10/19 11:00:06;;;;;;;5.45;2.25;;;;;;;;;;5015841;28;20065;-84
2022/10/19 11:02:45;;;;;;;7.20;2.10;;;;;;;;;;5015791;28;20077;-82
2022/10/19 11:05:16;;;;;;;7.75;2.15;;;;;;;;;;5015459;22;20526;-82
2022/10/19 11:07:45;;;;;;;2.42;1.90;;;;;;;;;;5001335;28;20110;-83
2022/10/19 11:10:38;;;;;;;3.25;2.20;;;;;;;;;;4994489;28;20038;-83
2022/10/19 11:13:14;;;;;;;2.60;2.03;;;;;;;;;;4983858;28;20046;-82
2022/10/19 11:16:03;;;;;;;3.47;1.92;;;;;;;;;;4989821;28;20045;-82
2022/10/19 11:18:40;;;;;;;1.63;1.50;;;;;;;;;;4974091;28;20101;-82
2022/10/19 11:21:09;;;;;;;3.30;2.20;;;;;;;;;;4977440;28;20362;-83
2022/10/19 11:23:53;;;;;;;2.55;1.73;;;;;;;;;;4986518;28;20029;-82
2022/10/19 11:26:44;;;;;;;2.92;2.10;;;;;;;;;;4978374;28;20485;-84
2022/10/19 11:29:37;;;;;;;2.60;2.05;;;;;;;;;;4990121;28;20400;-84
2022/10/19 11:32:10;;;;;;;4.35;1.98;;;;;;;;;;4985987;28;20617;-84
2022/10/19 11:34:54;;;;;;;6.63;1.90;;;;;;;;;;4987543;28;20019;-83
2022/10/19 11:37:40;;;;;;;3.35;2.20;;;;;;;;;;5006633;28;20041;-83
2022/10/19 11:40:23;;;;;;;4.70;2.20;;;;;;;;;;4984105;28;20088;-84
2022/10/19 11:43:38;;;;;;;2.38;1.92;;;;;;;;;;4986141;28;20069;-84
2022/10/19 11:46:18;;;;;;;6.78;2.60;;;;;;;;;;4913843;28;20044;-84
2022/10/19 11:48:58;;;;;;;2.88;2.45;;;;;;;;;;4977736;28;20050;-84
2022/10/19 11:52:05;;;;;;;3.08;2.00;;;;;;;;;;4980777;28;20176;-84
2022/10/19 11:54:40;;;;;;;6.53;1.73;;;;;;;;;;4947422;28;20396;-83
2022/10/19 11:57:17;;;;;;;3.58;2.13;;;;;;;;;;4980204;28;20117;-83
2022/10/19 11:59:52;;;;;;;3.78;2.00;;;;;;;;;;5009198;28;20093;-84
2022/10/19 12:02:38;;;;;;;6.20;1.70;;;;;;;;;;4986827;28;20506;-83
2022/10/19 12:05:13;;;;;;;2.00;1.73;;;;;;;;;;4990703;28;20570;-83
2022/10/19 12:08:16;;;;;;;3.58;1.98;;;;;;;;;;4985944;28;20042;-83
2022/10/19 12:11:09;;;;;;;2.22;2.00;;;;;;;;;;4982017;28;20030;-84
2022/10/19 12:13:49;;;;;;;3.22;2.45;;;;;;;;;;4974520;28;20510;-84
2022/10/19 12:16:17;;;;;;;5.20;2.15;;;;;;;;;;4981112;28;20031;-84
2022/10/19 12:18:47;;;;;;;2.33;2.03;;;;;;;;;;4979612;28;20486;-84
2022/10/19 12:21:20;;;;;;;3.83;1.95;;;;;;;;;;4980037;28;20103;-84
2022/10/19 12:23:46;;;;;;;4.80;2.20;;;;;;;;;;4977024;28;20027;-84
2022/10/19 12:26:17;;;;;;;2.75;2.08;;;;;;;;;;4980182;28;20046;-83
2022/10/19 12:28:49;;;;;;;4.43;2.20;;;;;;;;;;4984150;28;20035;-84
2022/10/19 12:31:16;;;;;;;2.70;1.95;;;;;;;;;;4980877;28;20046;-85
2022/10/19 12:33:50;;;;;;;1.85;1.67;;;;;;;;;;4991217;28;20022;-83
2022/10/19 12:36:33;;;;;;;4.75;1.85;;;;;;;;;;4977914;28;20038;-83
2022/10/19 12:39:03;;;;;;;2.83;2.00;;;;;;;;;;4980326;28;20026;-84
2022/10/19 12:41:52;;;;;;;2.50;2.05;;;;;;;;;;4976086;28;20027;-85
2022/10/19 12:44:39;;;;;;;1.98;1.73;;;;;;;;;;4966041;28;20130;-81
2022/10/19 12:47:17;;;;;;;4.28;2.17;;;;;;;;;;4966447;28;20046;-85
2022/10/19 12:49:56;;;;;;;4.68;2.15;;;;;;;;;;4971967;28;20433;-84
2022/10/19 12:52:40;;;;;;;8.38;2.30;;;;;;;;;;4977619;28;20019;-83
2022/10/19 12:55:14;;;;;;;4.88;2.53;;;;;;;;;;4976485;28;20046;-84
2022/10/19 12:57:46;;;;;;;1.90;1.70;;;;;;;;;;4980883;28;20105;-83
2022/10/19 13:00:27;;;;;;;2.03;1.83;;;;;;;;;;4987544;28;20030;-83
2022/10/19 13:03:19;;;;;;;3.35;2.05;;;;;;;;;;4987140;28;20443;-83
2022/10/19 13:05:58;;;;;;;5.20;2.90;;;;;;;;;;4981875;28;20042;-83
2022/10/19 13:08:46;;;;;;;2.75;2.30;;;;;;;;;;4985553;28;20007;-82
2022/10/19 13:11:14;;;;;;;8.65;2.13;;;;;;;;;;4978892;28;20033;-83
2022/10/19 13:14:31;;;;;;;2.80;2.03;;;;;;;;;;4984952;28;20022;-83
2022/10/19 13:16:59;;;;;;;3.13;2.33;;;;;;;;;;4982312;28;20496;-83
2022/10/19 13:19:25;;;;;;;4.30;2.42;;;;;;;;;;4982805;28;20481;-83
2022/10/19 13:21:57;;;;;;;7.07;2.13;;;;;;;;;;4981014;28;20142;-83
2022/10/19 13:24:22;;;;;;;4.10;2.40;;;;;;;;;;4980391;28;20042;-83
2022/10/19 13:27:07;;;;;;;3.30;2.55;;;;;;;;;;4984265;28;20015;-83
2022/10/19 13:29:36;;;;;;;5.00;2.47;;;;;;;;;;4982986;28;20030;-83
2022/10/19 13:32:38;;;;;;;3.63;2.30;;;;;;;;;;4978592;28;20023;-83
2022/10/19 13:35:30;;;;;;;2.30;2.10;;;;;;;;;;4980239;28;20034;-83
2022/10/19 13:38:07;;;;;;;4.35;2.58;;;;;;;;;;4981696;28;20057;-84
2022/10/19 13:40:38;;;;;;;3.40;2.63;;;;;;;;;;4977859;28;20034;-85
2022/10/19 13:43:03;;;;;;;5.47;2.67;;;;;;;;;;4986131;28;20015;-84
2022/10/19 13:45:29;;;;;;;3.05;2.55;;;;;;;;;;4986655;28;20142;-84
2022/10/19 13:48:11;;;;;;;3.67;2.38;;;;;;;;;;5012133;28;20019;-83
2022/10/19 13:50:56;;;;;;;;;;;;;;;;;;4991388;28;20500;-84
2022/10/19 13:53:28;;;;;;;8.40;2.83;;;;;;;;;;4968841;28;19977;-85
2022/10/19 13:55:53;;;;;;;4.97;2.30;;;;;;;;;;4984283;28;20058;-84
2022/10/19 13:58:29;;;;;;;3.50;2.45;;;;;;;;;;4978322;28;20027;-83
2022/10/19 14:00:57;;;;;;;3.00;2.30;;;;;;;;;;4974700;28;20034;-84
2022/10/19 14:04:01;;;;;;;4.75;2.45;;;;;;;;;;4977921;28;20094;-84
2022/10/19 14:06:30;;;;;;;6.30;2.20;;;;;;;;;;4969296;28;20074;-83
2022/10/19 14:09:15;;;;;;;3.97;2.50;;;;;;;;;;4989076;28;20023;-83
2022/10/19 14:11:44;;;;;;;5.45;2.03;;;;;;;;;;4986434;28;20505;-84
2022/10/19 14:14:09;;;;;;;5.10;2.50;;;;;;;;;;5000440;28;20037;-85
2022/10/19 14:17:02;;;;;;;4.35;2.15;;;;;;;;;;5013816;28;20026;-84
2022/10/19 14:19:49;;;;;;;4.28;2.38;;;;;;;;;;4999938;28;20050;-82
2022/10/19 14:22:23;;;;;;;3.33;2.28;;;;;;;;;;4992550;28;20076;-82
2022/10/19 14:24:49;;;;;;;3.17;2.30;;;;;;;;;;4984963;28;20022;-84
2022/10/19 14:27:23;;;;;;;4.82;2.20;;;;;;;;;;4984310;28;20030;-83
2022/10/19 14:29:51;;;;;;;4.22;2.17;;;;;;;;;;4977836;28;20497;-83
2022/10/19 14:32:20;;;;;;;3.28;1.80;;;;;;;;;;4977995;28;20026;-82
2022/10/19 14:34:47;;;;;;;2.63;1.85;;;;;;;;;;4976797;28;20029;-84
2022/10/19 14:37:19;;;;;;;2.53;1.52;;;;;;;;;;4987343;28;20033;-79
2022/10/19 14:40:27;;;;;;;3.42;1.83;;;;;;;;;;4996424;28;20054;-81
2022/10/19 14:42:53;;;;;;;5.28;2.10;;;;;;;;;;4979959;28;20085;-84
2022/10/19 14:45:22;;;;;;;5.20;2.15;;;;;;;;;;4975372;28;20014;-85
2022/10/19 14:47:59;;;;;;;3.75;1.70;;;;;;;;;;4967720;28;20033;-85
2022/10/19 14:50:33;;;;;;;3.47;1.80;;;;;;;;;;4968131;28;20089;-84
2022/10/19 14:53:24;;;;;;;2.33;1.95;;;;;;;;;;4970223;28;20030;-83
2022/10/19 14:55:54;;;;;;;1.77;1.67;;;;;;;;;;4964797;28;20039;-84
2022/10/19 14:58:22;;;;;;;4.57;1.90;;;;;;;;;;4969428;28;20034;-84
2022/10/19 15:00:49;;;;;;;1.98;1.70;;;;;;;;;;4975298;28;20026;-84
2022/10/19 15:03:26;;;;;;;2.58;2.10;;;;;;;;;;4982993;28;20607;-83
2022/10/19 15:05:58;;;;;;;3.17;2.45;;;;;;;;;;4971910;28;20031;-83
2022/10/19 15:08:38;;;;;;;1.75;1.60;;;;;;;;;;4983191;28;20049;-84
2022/10/19 15:11:05;;;;;;;3.17;1.90;;;;;;;;;;4970645;28;20041;-84